This is the latest recevied weather packets stored in our database for station/object WA1TYB-13. If no packets are shown the sender has not sent any weather packets the latest 1 day(s).
| Time | Temp. | Humidity | Pressure | Rain* | Wind** | Luminosity | Snow |
|---|---|---|---|---|---|---|---|
| 1836274594 | 16.67° C | 58% | 1017.5 hPa | 0 mm | 0 m/s | 0 W/m² | - |
| 1836274447 | 15.56° C | 60% | 1017.5 hPa | 0 mm | 0.89 m/s, 156° | 0 W/m² | - |
| 1836274292 | 17.22° C | 56% | 1017.2 hPa | 0 mm | 0.89 m/s, 206° | 0 W/m² | - |
| 1836274145 | 16.11° C | 59% | 1017.5 hPa | 0 mm | 0 m/s | 0 W/m² | - |
| 1836273991 | 17.22° C | 57% | 1017.5 hPa | 0 mm | 0.89 m/s, 176° | 0 W/m² | - |
| 1778047486 | 0° C | 69% | 1021.6 hPa | 0 mm | 0.89 m/s, 245° | 0 W/m² | - |
| 1778047182 | 0° C | 68% | 1021.6 hPa | 0 mm | 0.89 m/s, 154° | 0 W/m² | - |
| 1778046879 | 0° C | 67% | 1021.5 hPa | 0 mm | 1.34 m/s, 185° | 0 W/m² | - |
| 1778046576 | 0.56° C | 66% | 1021.7 hPa | 0 mm | 1.34 m/s, 200° | 0 W/m² | - |
| 1778046273 | 0.56° C | 66% | 1021.6 hPa | 0 mm | 0 m/s | 0 W/m² | - |
| 1778045968 | 1.11° C | 65% | 1021.6 hPa | 0 mm | 0.45 m/s, 195° | 0 W/m² | - |
| 1778045667 | 0.56° C | 66% | 1021.7 hPa | 0 mm | 0.89 m/s, 175° | 0 W/m² | - |
| 1778045365 | 0.56° C | 67% | 1021.5 hPa | 0 mm | 0.89 m/s, 147° | 0 W/m² | - |
| 1778045064 | 1.11° C | 65% | 1021.6 hPa | 0 mm | 0.89 m/s, 209° | 0 W/m² | - |
| 1778044761 | 1.67° C | 63% | 1021.6 hPa | 0 mm | 0.89 m/s, 216° | 0 W/m² | - |
| 1778044457 | 1.67° C | 65% | 1021.6 hPa | 0 mm | 0.45 m/s, 218° | 0 W/m² | - |
| 1778044154 | 1.67° C | 63% | 1021.6 hPa | 0 mm | 0 m/s | 0 W/m² | - |
| 1778043852 | 1.67° C | 62% | 1021.5 hPa | 0 mm | 0 m/s | 0 W/m² | - |
| 1778043551 | 1.67° C | 63% | 1021.6 hPa | 0 mm | 0.45 m/s, 16° | 0 W/m² | - |
| 1778043246 | 1.67° C | 64% | 1021.4 hPa | 0 mm | 0 m/s | 0 W/m² | - |
| 1778042942 | 1.67° C | 63% | 1021.5 hPa | 0 mm | 0 m/s | 0 W/m² | - |
| 1778042640 | 2.22° C | 62% | 1021.6 hPa | 0 mm | 0 m/s | 0 W/m² | - |
| 1778042337 | 2.22° C | 62% | 1021.6 hPa | 0 mm | 0.45 m/s, 266° | 0 W/m² | - |
| 1778042034 | 2.78° C | 60% | 1021.6 hPa | 0 mm | 0 m/s | 0 W/m² | - |
| 1778041732 | 2.78° C | 60% | 1021.6 hPa | 0 mm | 0.45 m/s, 294° | 0 W/m² | - |
* Rain latest hour (hover to see other rain measurements)
** Current wind speed in m/s (hover to see current wind gust speed)